Time;durP1;ratioP1;P1;durP2;ratioP2;P2;SDS_P1;SDS_P2;PMS_P1;PMS_P2;Temp;Humidity;BMP_temperature;BMP_pressure;BME280_temperature;BME280_humidity;BME280_pressure;Samples;Min_cycle;Max_cycle;Signal;HPM_P1;HPM_P2
2023/09/29 00:01:58;;;;;;;13.82;4.75;;;16.00;99.90;;;;;;5041375;28;20048;-70
2023/09/29 00:04:25;;;;;;;11.02;4.03;;;16.00;99.90;;;;;;5044834;28;20064;-70
2023/09/29 00:06:51;;;;;;;14.13;3.38;;;16.10;99.90;;;;;;5047695;28;20148;-69
2023/09/29 00:09:17;;;;;;;12.70;3.78;;;16.10;99.90;;;;;;5047468;28;20520;-70
2023/09/29 00:11:47;;;;;;;14.13;3.22;;;16.10;99.90;;;;;;5051537;28;20372;-69
2023/09/29 00:14:14;;;;;;;10.40;2.80;;;16.10;99.90;;;;;;5055047;28;20185;-70
2023/09/29 00:16:40;;;;;;;12.20;3.42;;;16.10;99.90;;;;;;5050582;28;20053;-70
2023/09/29 00:19:05;;;;;;;16.27;3.45;;;16.10;99.90;;;;;;5049693;28;20047;-69
2023/09/29 00:21:31;;;;;;;12.20;2.80;;;16.10;99.90;;;;;;5051705;28;20453;-70
2023/09/29 00:23:57;;;;;;;16.27;3.15;;;16.20;99.90;;;;;;5039585;28;20057;-70
2023/09/29 00:26:22;;;;;;;17.05;3.70;;;16.10;99.90;;;;;;5057349;28;20417;-69
2023/09/29 00:28:50;;;;;;;9.02;2.75;;;16.20;99.90;;;;;;5054825;28;20051;-70
2023/09/29 00:31:16;;;;;;;9.77;2.70;;;16.20;99.90;;;;;;5056168;28;20049;-69
2023/09/29 00:33:42;;;;;;;8.63;2.95;;;16.20;99.90;;;;;;5050935;28;20417;-70
2023/09/29 00:36:09;;;;;;;10.98;2.95;;;16.20;99.90;;;;;;5056863;28;20052;-69
2023/09/29 00:38:35;;;;;;;13.10;3.00;;;16.20;99.90;;;;;;5050269;28;20149;-70
2023/09/29 00:41:01;;;;;;;13.45;2.80;;;16.20;99.90;;;;;;5053278;28;20226;-69
2023/09/29 00:43:27;;;;;;;;;;;16.20;99.90;;;;;;5049023;28;20107;-70
2023/09/29 00:45:54;;;;;;;11.13;2.65;;;16.20;99.90;;;;;;5049500;28;20483;-70
2023/09/29 00:48:23;;;;;;;9.27;2.33;;;16.20;99.90;;;;;;5048225;28;20059;-70
2023/09/29 00:50:51;;;;;;;12.35;2.83;;;16.20;99.90;;;;;;5053558;28;20450;-70
2023/09/29 00:53:19;;;;;;;10.20;2.50;;;16.20;99.90;;;;;;5048646;28;20071;-70
2023/09/29 00:55:46;;;;;;;14.27;3.25;;;16.30;99.90;;;;;;5049202;28;20033;-69
2023/09/29 00:58:15;;;;;;;17.90;3.40;;;16.30;99.90;;;;;;5041357;28;20036;-69
2023/09/29 01:00:41;;;;;;;10.48;2.60;;;16.30;99.90;;;;;;5055783;28;20116;-69
2023/09/29 01:03:15;;;;;;;13.02;2.63;;;16.20;99.90;;;;;;5053581;28;20040;-69
2023/09/29 01:05:49;;;;;;;10.07;2.67;;;16.30;99.90;;;;;;5049874;28;20071;-69
2023/09/29 01:08:26;;;;;;;9.70;2.58;;;16.30;99.90;;;;;;5046259;28;20455;-69
2023/09/29 01:10:55;;;;;;;10.18;2.38;;;16.30;99.90;;;;;;5055390;28;20037;-69
2023/09/29 01:13:22;;;;;;;13.52;2.80;;;16.30;99.90;;;;;;5052090;28;20036;-69
2023/09/29 01:15:49;;;;;;;13.63;2.58;;;16.30;99.90;;;;;;5039408;28;20041;-69
2023/09/29 01:18:16;;;;;;;12.70;2.45;;;16.30;99.90;;;;;;5059266;28;20082;-69
2023/09/29 01:20:43;;;;;;;9.40;2.92;;;16.20;99.90;;;;;;5053568;28;20504;-69
2023/09/29 01:23:09;;;;;;;11.57;3.55;;;16.20;99.90;;;;;;5053797;28;20412;-69
2023/09/29 01:25:36;;;;;;;13.40;3.55;;;16.30;99.90;;;;;;5051534;28;20033;-69
2023/09/29 01:28:07;;;;;;;7.32;2.80;;;16.30;99.90;;;;;;5057687;28;20420;-69
2023/09/29 01:30:42;;;;;;;9.20;2.97;;;16.30;99.90;;;;;;5055698;28;20056;-69
2023/09/29 01:33:08;;;;;;;6.95;2.35;;;16.30;99.90;;;;;;5056563;28;20048;-69
2023/09/29 01:35:34;;;;;;;15.02;2.63;;;16.30;99.90;;;;;;5053094;28;20060;-69
2023/09/29 01:38:00;;;;;;;10.50;2.70;;;16.30;99.90;;;;;;5048833;28;20052;-69
2023/09/29 01:40:28;;;;;;;13.27;2.70;;;16.30;99.90;;;;;;5053217;28;20029;-69
2023/09/29 01:42:56;;;;;;;11.82;3.00;;;16.20;99.90;;;;;;5059101;28;20059;-69
2023/09/29 01:45:25;;;;;;;9.10;2.92;;;16.30;99.90;;;;;;5053964;28;20044;-68
2023/09/29 01:47:51;;;;;;;7.57;2.67;;;16.20;99.90;;;;;;5049999;28;20045;-69
2023/09/29 01:50:21;;;;;;;12.07;2.95;;;16.20;99.90;;;;;;5056729;28;20342;-69
2023/09/29 01:52:48;;;;;;;14.75;3.30;;;16.20;99.90;;;;;;5050608;28;20052;-69
2023/09/29 01:55:15;;;;;;;12.30;3.08;;;16.20;99.90;;;;;;5051170;28;20512;-69
2023/09/29 01:57:48;;;;;;;9.77;2.50;;;16.20;99.90;;;;;;5051933;28;20051;-69
2023/09/29 02:00:24;;;;;;;14.23;2.78;;;16.20;99.90;;;;;;5053320;28;20048;-69
2023/09/29 02:02:50;;;;;;;10.00;3.23;;;16.20;99.90;;;;;;5054515;28;20097;-68
2023/09/29 02:05:19;;;;;;;13.88;2.83;;;16.30;99.90;;;;;;5059287;28;20155;-68
2023/09/29 02:07:45;;;;;;;11.00;2.72;;;16.20;99.90;;;;;;5054518;28;20142;-69
2023/09/29 02:10:11;;;;;;;9.35;2.28;;;16.20;99.90;;;;;;5057126;28;20152;-69
2023/09/29 02:12:48;;;;;;;14.70;2.63;;;16.20;99.90;;;;;;5056179;28;20045;-68
2023/09/29 02:15:20;;;;;;;7.07;2.47;;;16.20;99.90;;;;;;5059024;28;20053;-70
2023/09/29 02:17:48;;;;;;;8.98;2.20;;;16.30;99.90;;;;;;5054513;28;20515;-69
2023/09/29 02:20:15;;;;;;;11.02;3.30;;;16.30;99.90;;;;;;5049776;28;20040;-69
2023/09/29 02:22:42;;;;;;;11.93;2.67;;;16.20;99.90;;;;;;5058035;28;20158;-69
2023/09/29 02:25:15;;;;;;;7.82;2.47;;;16.20;99.90;;;;;;5054135;28;20040;-69
2023/09/29 02:27:44;;;;;;;12.40;3.30;;;16.30;99.90;;;;;;5054347;28;20332;-69
2023/09/29 02:30:12;;;;;;;12.60;3.22;;;16.20;99.90;;;;;;5051216;28;20060;-69
2023/09/29 02:32:41;;;;;;;14.25;3.80;;;16.20;99.90;;;;;;5051959;28;20676;-69
2023/09/29 02:35:08;;;;;;;10.48;4.38;;;16.20;99.90;;;;;;5055438;28;20036;-69
2023/09/29 02:37:34;;;;;;;12.18;2.65;;;16.20;99.90;;;;;;5034753;28;20497;-70
2023/09/29 02:40:02;;;;;;;10.80;2.42;;;16.20;99.90;;;;;;5049513;28;20041;-71
2023/09/29 02:42:28;;;;;;;9.43;2.60;;;16.20;99.90;;;;;;5052067;28;20044;-70
2023/09/29 02:44:53;;;;;;;13.77;3.05;;;16.20;99.90;;;;;;5060347;28;20045;-71
2023/09/29 02:47:19;;;;;;;11.23;3.17;;;16.20;99.90;;;;;;5053278;28;20079;-71
2023/09/29 02:49:45;;;;;;;11.20;3.03;;;16.20;99.90;;;;;;5054680;28;20052;-70
2023/09/29 02:52:11;;;;;;;7.40;2.35;;;16.20;99.90;;;;;;5056693;28;20142;-70
2023/09/29 02:54:36;;;;;;;7.50;2.92;;;16.20;99.90;;;;;;5057740;28;20397;-70
2023/09/29 02:57:02;;;;;;;8.73;3.10;;;16.20;99.90;;;;;;5060037;28;20419;-70
2023/09/29 02:59:33;;;;;;;7.95;2.65;;;16.20;99.90;;;;;;5052717;28;20140;-71
2023/09/29 03:02:00;;;;;;;17.02;2.85;;;16.20;99.90;;;;;;5050520;28;20124;-70
2023/09/29 03:04:29;;;;;;;8.38;2.60;;;16.20;99.90;;;;;;5049122;28;20365;-70
2023/09/29 03:06:56;;;;;;;9.50;3.63;;;16.20;99.90;;;;;;5052013;28;20236;-70
2023/09/29 03:09:22;;;;;;;12.15;2.72;;;16.20;99.90;;;;;;5053472;28;20059;-70
2023/09/29 03:11:49;;;;;;;12.07;2.22;;;16.30;99.90;;;;;;5047389;28;20394;-70
2023/09/29 03:14:17;;;;;;;9.13;2.45;;;16.20;99.90;;;;;;5057777;28;20056;-70
2023/09/29 03:16:45;;;;;;;6.65;2.33;;;16.30;99.90;;;;;;5053431;28;20037;-70
2023/09/29 03:19:11;;;;;;;11.07;2.20;;;16.30;99.90;;;;;;5051152;28;20435;-69
2023/09/29 03:21:37;;;;;;;9.65;2.45;;;16.30;99.90;;;;;;5057136;28;20033;-70
2023/09/29 03:24:07;;;;;;;7.38;1.95;;;16.30;99.90;;;;;;5055817;28;20059;-70
2023/09/29 03:26:34;;;;;;;9.60;2.20;;;16.30;99.90;;;;;;5034681;28;20227;-70
2023/09/29 03:28:59;;;;;;;;;;;16.30;99.90;;;;;;5052669;28;20049;-71
2023/09/29 03:31:27;;;;;;;10.95;2.50;;;16.30;99.90;;;;;;5053566;28;20015;-68
2023/09/29 03:33:53;;;;;;;7.63;2.17;;;16.40;99.90;;;;;;5052259;28;20045;-67
2023/09/29 03:36:22;;;;;;;11.05;2.90;;;16.30;99.90;;;;;;5054156;28;20123;-71
2023/09/29 03:38:48;;;;;;;17.33;3.13;;;16.30;99.90;;;;;;5054902;28;20051;-69
2023/09/29 03:41:13;;;;;;;8.10;2.33;;;16.30;99.90;;;;;;5035653;28;20040;-68
2023/09/29 03:43:40;;;;;;;10.63;3.08;;;16.40;99.90;;;;;;5049305;28;20044;-71
2023/09/29 03:46:15;;;;;;;12.68;2.60;;;16.30;99.90;;;;;;5032123;28;20051;-67
2023/09/29 03:48:46;;;;;;;8.25;2.70;;;16.30;99.90;;;;;;5056600;28;20400;-67
2023/09/29 03:51:11;;;;;;;8.77;2.67;;;16.40;99.90;;;;;;5055841;28;20041;-72
2023/09/29 03:53:38;;;;;;;10.57;2.53;;;16.40;99.90;;;;;;5050446;28;20394;-70
2023/09/29 03:56:04;;;;;;;10.80;2.20;;;16.40;99.90;;;;;;5044767;28;20048;-67
2023/09/29 03:58:29;;;;;;;14.07;3.30;;;16.40;99.90;;;;;;5054188;28;20037;-67
2023/09/29 04:00:55;;;;;;;12.15;2.55;;;16.40;99.90;;;;;;5053644;28;20040;-67
2023/09/29 04:03:20;;;;;;;10.13;2.58;;;16.40;99.90;;;;;;5051536;28;20087;-68
2023/09/29 04:05:46;;;;;;;8.45;2.17;;;16.40;99.90;;;;;;5052717;28;20472;-67
2023/09/29 04:08:14;;;;;;;13.50;2.60;;;16.50;99.90;;;;;;5051422;28;20508;-71
2023/09/29 04:10:40;;;;;;;11.48;2.50;;;16.50;99.90;;;;;;5036733;28;20349;-67
2023/09/29 04:13:05;;;;;;;12.32;2.35;;;16.50;99.90;;;;;;5053522;28;20357;-67
2023/09/29 04:15:31;;;;;;;10.40;2.53;;;16.50;99.90;;;;;;5049919;28;20388;-67
2023/09/29 04:17:57;;;;;;;13.32;2.47;;;16.50;99.90;;;;;;5056064;28;20076;-68
2023/09/29 04:20:22;;;;;;;15.18;3.25;;;16.60;99.90;;;;;;5050698;28;20505;-70
2023/09/29 04:22:48;;;;;;;12.20;2.25;;;16.60;99.90;;;;;;5057492;28;20044;-68
2023/09/29 04:25:13;;;;;;;9.45;2.30;;;16.60;99.90;;;;;;5054374;28;20162;-66
2023/09/29 04:27:40;;;;;;;7.93;2.17;;;16.60;99.90;;;;;;5057034;28;20373;-69
2023/09/29 04:30:07;;;;;;;7.28;2.60;;;16.60;99.90;;;;;;5055359;28;20050;-68
2023/09/29 04:32:32;;;;;;;13.68;3.10;;;16.60;99.90;;;;;;5054522;28;20040;-70
2023/09/29 04:34:58;;;;;;;8.15;2.63;;;16.60;99.90;;;;;;5058186;28;20220;-70
2023/09/29 04:37:24;;;;;;;9.38;2.20;;;16.70;99.90;;;;;;5061556;28;20558;-70
2023/09/29 04:39:49;;;;;;;15.82;3.10;;;16.70;99.90;;;;;;5058718;28;20260;-71
2023/09/29 04:42:15;;;;;;;10.15;2.60;;;16.70;99.90;;;;;;5051296;28;20040;-70
2023/09/29 04:44:40;;;;;;;10.40;2.28;;;16.70;99.90;;;;;;5058071;28;20161;-70
2023/09/29 04:47:07;;;;;;;10.68;2.30;;;16.70;99.90;;;;;;5049754;28;20537;-67
2023/09/29 04:49:32;;;;;;;;;;;16.70;99.90;;;;;;5056167;28;20034;-67
2023/09/29 04:51:58;;;;;;;9.75;2.38;;;16.70;99.90;;;;;;5054165;28;20024;-70
2023/09/29 04:54:26;;;;;;;8.23;2.15;;;16.70;99.90;;;;;;5042951;28;20040;-69
2023/09/29 04:56:54;;;;;;;13.45;3.47;;;16.70;99.90;;;;;;5054931;28;20083;-71
2023/09/29 04:59:20;;;;;;;12.40;2.85;;;16.80;99.90;;;;;;5058031;28;20483;-71
2023/09/29 05:01:49;;;;;;;9.15;2.25;;;16.80;99.90;;;;;;5052380;28;20142;-67
2023/09/29 05:04:15;;;;;;;10.25;2.58;;;16.80;99.90;;;;;;5056995;28;20048;-69
2023/09/29 05:06:40;;;;;;;7.97;2.67;;;16.80;99.90;;;;;;5054478;28;20064;-69
2023/09/29 05:09:11;;;;;;;8.43;2.63;;;16.80;99.90;;;;;;5053988;28;20047;-68
2023/09/29 05:11:37;;;;;;;6.75;2.58;;;16.80;99.90;;;;;;5072201;28;20048;-67
2023/09/29 05:14:06;;;;;;;8.23;2.28;;;16.80;99.90;;;;;;5058878;28;20040;-67
2023/09/29 05:16:31;;;;;;;7.25;2.42;;;16.80;99.90;;;;;;5057950;28;20530;-67
2023/09/29 05:18:58;;;;;;;11.50;3.17;;;16.80;99.90;;;;;;5043130;28;20161;-67
2023/09/29 05:21:26;;;;;;;8.07;2.40;;;16.80;99.90;;;;;;5058239;28;20117;-67
2023/09/29 05:23:52;;;;;;;10.05;2.47;;;16.70;99.90;;;;;;5061765;28;20166;-67
2023/09/29 05:26:18;;;;;;;11.35;2.88;;;16.70;99.90;;;;;;5055579;28;20044;-66
2023/09/29 05:28:51;;;;;;;8.32;2.60;;;16.70;99.90;;;;;;5061681;28;20037;-67
2023/09/29 05:31:17;;;;;;;13.10;3.50;;;16.70;99.90;;;;;;5058903;28;20032;-66
2023/09/29 05:33:42;;;;;;;10.00;3.00;;;16.70;99.90;;;;;;5058283;28;20301;-66
2023/09/29 05:36:11;;;;;;;8.90;2.85;;;16.60;99.90;;;;;;5051955;28;20519;-67
2023/09/29 05:38:38;;;;;;;10.45;2.70;;;16.60;99.90;;;;;;5055425;28;20041;-67
2023/09/29 05:41:10;;;;;;;15.15;3.10;;;16.60;99.90;;;;;;5054522;28;20047;-66
2023/09/29 05:43:38;;;;;;;11.20;2.80;;;16.60;99.90;;;;;;5053948;28;20449;-67
2023/09/29 05:46:06;;;;;;;7.00;2.35;;;16.60;99.90;;;;;;5056084;28;20052;-67
2023/09/29 05:48:32;;;;;;;10.88;2.97;;;16.70;99.90;;;;;;5060686;28;20055;-67
2023/09/29 05:51:00;;;;;;;7.22;2.60;;;16.60;99.90;;;;;;5040063;28;20048;-67
2023/09/29 05:53:29;;;;;;;10.60;3.13;;;16.60;99.90;;;;;;5058263;28;20493;-67
2023/09/29 05:55:54;;;;;;;6.75;2.75;;;16.70;99.90;;;;;;5056388;28;20033;-70
2023/09/29 05:58:22;;;;;;;12.70;3.03;;;16.60;99.90;;;;;;5054064;28;20029;-67
2023/09/29 06:00:48;;;;;;;12.45;2.97;;;16.60;99.90;;;;;;5052952;28;20167;-67
2023/09/29 06:03:19;;;;;;;7.28;2.83;;;16.70;99.90;;;;;;5060133;28;20579;-67
2023/09/29 06:05:45;;;;;;;7.70;2.72;;;16.60;99.90;;;;;;5056597;28;20169;-67
2023/09/29 06:08:13;;;;;;;7.18;2.90;;;16.70;99.90;;;;;;5057525;28;20135;-67
2023/09/29 06:10:39;;;;;;;10.45;2.78;;;16.70;99.90;;;;;;5056626;28;20581;-67
2023/09/29 06:13:05;;;;;;;10.77;2.47;;;16.70;99.90;;;;;;5056631;28;20048;-67
2023/09/29 06:15:32;;;;;;;12.73;3.03;;;16.70;99.90;;;;;;5052696;28;20508;-68
2023/09/29 06:17:58;;;;;;;8.23;2.42;;;16.70;99.90;;;;;;5055216;28;20040;-68
2023/09/29 06:20:24;;;;;;;8.52;2.85;;;16.70;99.90;;;;;;5058307;28;20177;-68
2023/09/29 06:22:49;;;;;;;9.38;3.17;;;16.70;99.90;;;;;;5057050;28;20563;-67
2023/09/29 06:25:15;;;;;;;8.32;2.78;;;16.70;99.90;;;;;;5051971;28;20126;-67
2023/09/29 06:27:41;;;;;;;10.90;3.10;;;16.70;99.90;;;;;;5033074;28;20164;-67
2023/09/29 06:30:07;;;;;;;9.48;2.85;;;16.70;99.90;;;;;;5057240;28;20094;-67
2023/09/29 06:32:32;;;;;;;8.55;2.95;;;16.70;99.90;;;;;;5039186;28;20645;-67
2023/09/29 06:34:58;;;;;;;8.63;3.15;;;16.70;99.90;;;;;;5059749;28;20055;-66
2023/09/29 06:37:23;;;;;;;8.85;3.22;;;16.70;99.90;;;;;;5057305;28;20469;-67
2023/09/29 06:39:49;;;;;;;7.28;2.95;;;16.70;99.90;;;;;;5055900;28;20249;-66
2023/09/29 06:42:17;;;;;;;8.52;2.58;;;16.70;99.90;;;;;;5055147;28;20044;-66
2023/09/29 06:44:43;;;;;;;9.05;2.92;;;16.70;99.90;;;;;;5041481;28;20078;-67
2023/09/29 06:47:08;;;;;;;10.10;2.70;;;16.80;99.90;;;;;;5055938;28;20079;-67
2023/09/29 06:49:40;;;;;;;8.98;3.40;;;16.80;99.90;;;;;;5054522;28;20505;-67
2023/09/29 06:52:11;;;;;;;9.93;3.03;;;16.80;99.90;;;;;;5038046;28;20608;-67
2023/09/29 06:54:37;;;;;;;10.23;3.40;;;16.80;99.90;;;;;;5048698;28;20190;-66
2023/09/29 06:57:03;;;;;;;8.77;2.88;;;16.90;99.90;;;;;;5056018;28;20231;-67
2023/09/29 06:59:28;;;;;;;7.40;3.40;;;16.90;99.90;;;;;;5060451;28;20293;-67
2023/09/29 07:01:55;;;;;;;9.40;3.47;;;16.90;99.90;;;;;;5055686;28;20532;-67
2023/09/29 07:04:20;;;;;;;7.28;2.45;;;16.90;99.90;;;;;;5052238;28;20044;-67
2023/09/29 07:06:46;;;;;;;10.60;2.80;;;17.00;99.90;;;;;;5050460;28;20047;-67
2023/09/29 07:09:12;;;;;;;8.60;3.15;;;17.00;99.90;;;;;;5059707;28;20148;-67
2023/09/29 07:11:40;;;;;;;12.60;3.17;;;17.10;99.90;;;;;;5058270;28;20036;-67
2023/09/29 07:14:06;;;;;;;7.22;2.90;;;17.10;99.90;;;;;;5055321;28;20135;-67
2023/09/29 07:16:32;;;;;;;;;;;17.10;99.90;;;;;;5055433;28;20062;-67
2023/09/29 07:18:57;;;;;;;6.60;2.70;;;17.10;99.90;;;;;;5055668;28;19917;-67
2023/09/29 07:21:23;;;;;;;7.13;2.55;;;17.10;99.90;;;;;;5055288;28;20508;-67
2023/09/29 07:23:49;;;;;;;11.82;3.13;;;17.20;99.90;;;;;;5054413;28;20078;-67
2023/09/29 07:26:15;;;;;;;7.53;2.38;;;17.20;99.90;;;;;;5054326;28;20088;-67
2023/09/29 07:28:40;;;;;;;11.02;3.10;;;17.30;99.90;;;;;;5026777;28;20052;-67
2023/09/29 07:31:06;;;;;;;8.77;3.22;;;17.20;99.90;;;;;;5040602;28;20036;-67
2023/09/29 07:33:32;;;;;;;6.78;2.90;;;17.30;99.90;;;;;;5058605;28;20044;-67
2023/09/29 07:35:58;;;;;;;7.90;2.88;;;17.40;99.90;;;;;;5063414;28;20045;-67
2023/09/29 07:38:23;;;;;;;6.13;2.28;;;17.50;99.90;;;;;;5057038;28;20071;-67
2023/09/29 07:40:49;;;;;;;7.88;2.55;;;17.40;99.90;;;;;;5057591;28;20029;-67
2023/09/29 07:43:15;;;;;;;10.35;2.65;;;17.50;99.90;;;;;;5041619;28;20033;-67
2023/09/29 07:45:41;;;;;;;8.82;2.88;;;17.50;99.90;;;;;;5055548;28;20070;-67
2023/09/29 07:48:07;;;;;;;4.43;2.10;;;17.60;99.90;;;;;;5054489;28;20052;-67
2023/09/29 07:50:32;;;;;;;;;;;17.60;99.90;;;;;;5040315;28;20094;-67
2023/09/29 07:52:59;;;;;;;8.85;2.97;;;17.70;99.90;;;;;;5052805;28;20356;-67
2023/09/29 07:55:25;;;;;;;5.63;2.67;;;17.80;99.90;;;;;;5054989;28;20368;-67
2023/09/29 07:57:52;;;;;;;8.40;3.03;;;17.80;99.90;;;;;;5051545;28;20040;-67
2023/09/29 08:00:17;;;;;;;5.32;2.72;;;17.90;99.90;;;;;;5058943;28;20036;-67
2023/09/29 08:02:43;;;;;;;5.28;2.67;;;17.90;99.90;;;;;;5054055;28;20037;-67
2023/09/29 08:05:12;;;;;;;5.65;2.63;;;18.00;99.90;;;;;;5060395;28;20543;-67
2023/09/29 08:07:39;;;;;;;6.25;2.88;;;18.00;99.90;;;;;;5030973;28;20041;-67
2023/09/29 08:10:06;;;;;;;9.88;2.75;;;18.10;99.90;;;;;;5059214;28;20523;-68
2023/09/29 08:12:32;;;;;;;5.35;2.83;;;18.20;99.90;;;;;;5055891;28;20045;-68
2023/09/29 08:14:58;;;;;;;5.13;2.47;;;18.20;99.90;;;;;;5055134;28;20382;-68
2023/09/29 08:17:25;;;;;;;7.25;2.67;;;18.30;99.90;;;;;;5041667;28;20418;-68
2023/09/29 08:19:51;;;;;;;6.75;2.90;;;18.30;99.90;;;;;;5054735;28;20076;-68
2023/09/29 08:22:17;;;;;;;6.70;3.58;;;18.30;99.90;;;;;;5050719;28;20112;-68
2023/09/29 08:24:42;;;;;;;7.30;3.00;;;18.40;99.90;;;;;;5038311;28;20068;-67
2023/09/29 08:27:08;;;;;;;7.65;3.28;;;18.40;99.90;;;;;;5055372;28;20808;-67
2023/09/29 08:29:34;;;;;;;8.68;4.18;;;18.50;99.90;;;;;;5056116;28;20128;-67
2023/09/29 08:32:00;;;;;;;10.25;3.42;;;18.60;99.90;;;;;;5053534;28;20040;-68
2023/09/29 08:34:28;;;;;;;10.82;3.22;;;18.60;99.90;;;;;;5059226;28;20033;-68
2023/09/29 08:36:54;;;;;;;11.15;4.40;;;18.70;99.90;;;;;;5057026;28;20040;-68
2023/09/29 08:39:20;;;;;;;10.98;3.45;;;18.70;99.90;;;;;;5058683;28;20094;-67
2023/09/29 08:41:54;;;;;;;8.00;3.58;;;18.80;99.90;;;;;;5051715;28;20074;-68
2023/09/29 08:44:27;;;;;;;8.73;4.10;;;18.80;99.90;;;;;;5051115;28;20041;-68
2023/09/29 08:46:55;;;;;;;11.70;4.07;;;18.80;99.90;;;;;;5055637;28;20045;-67
2023/09/29 08:49:21;;;;;;;13.13;4.88;;;18.80;99.90;;;;;;5056356;28;20489;-68
2023/09/29 08:51:49;;;;;;;11.80;5.05;;;18.90;99.90;;;;;;5058114;28;20155;-68
2023/09/29 08:54:15;;;;;;;13.18;4.82;;;18.90;99.90;;;;;;5057198;28;20530;-68
2023/09/29 08:56:41;;;;;;;10.40;4.90;;;18.90;99.90;;;;;;5058167;28;20037;-68
2023/09/29 08:59:08;;;;;;;15.38;5.93;;;18.90;99.90;;;;;;5042930;28;20114;-68
2023/09/29 09:01:34;;;;;;;14.18;5.55;;;19.00;99.90;;;;;;5057989;28;20079;-67
2023/09/29 09:03:59;;;;;;;12.40;5.07;;;19.00;99.90;;;;;;5056804;28;20053;-68
2023/09/29 09:06:26;;;;;;;14.40;5.95;;;19.10;99.90;;;;;;5052918;28;20132;-69
2023/09/29 09:08:54;;;;;;;16.15;6.53;;;19.10;99.90;;;;;;5055367;28;20564;-68
2023/09/29 09:11:20;;;;;;;14.38;6.00;;;19.20;99.90;;;;;;5049628;28;20078;-68
2023/09/29 09:13:58;;;;;;;16.38;6.40;;;19.30;99.90;;;;;;5058712;28;20457;-68
2023/09/29 09:16:25;;;;;;;11.68;5.15;;;19.40;99.90;;;;;;5053648;28;20045;-69
2023/09/29 09:18:51;;;;;;;10.68;5.15;;;19.50;99.90;;;;;;5056606;28;20040;-68
2023/09/29 09:21:17;;;;;;;16.02;5.53;;;19.50;99.90;;;;;;5060336;28;20158;-69
2023/09/29 09:23:42;;;;;;;17.15;6.32;;;19.60;99.90;;;;;;5061597;28;20044;-68
2023/09/29 09:26:14;;;;;;;11.88;5.30;;;19.60;99.90;;;;;;5057323;28;20036;-68
2023/09/29 09:28:40;;;;;;;12.40;4.93;;;19.70;99.90;;;;;;5056557;28;20071;-68
2023/09/29 09:31:07;;;;;;;10.38;3.58;;;19.70;99.90;;;;;;5061217;28;20040;-69
2023/09/29 09:33:32;;;;;;;9.25;4.07;;;19.70;99.90;;;;;;5036953;28;20040;-68
2023/09/29 09:36:10;;;;;;;9.00;2.90;;;19.80;99.90;;;;;;5055561;28;20422;-68
2023/09/29 09:38:37;;;;;;;5.78;2.55;;;19.80;99.90;;;;;;5055909;28;20040;-68
2023/09/29 09:41:04;;;;;;;6.47;2.10;;;19.80;99.90;;;;;;5053465;28;20033;-68
2023/09/29 09:43:34;;;;;;;5.97;2.78;;;19.80;99.90;;;;;;5059310;28;20397;-68
2023/09/29 09:46:04;;;;;;;6.70;2.45;;;19.80;99.90;;;;;;5051945;28;20041;-69
2023/09/29 09:49:22;;;;;;;6.68;2.60;;;19.80;99.90;;;;;;5056828;28;20154;-68
2023/09/29 09:51:52;;;;;;;6.32;1.63;;;19.80;99.90;;;;;;5053817;28;20139;-68
2023/09/29 09:54:26;;;;;;;5.85;2.35;;;19.80;99.90;;;;;;5050535;28;20360;-67
2023/09/29 09:57:04;;;;;;;4.22;2.03;;;19.80;99.90;;;;;;5056812;28;20176;-69
2023/09/29 09:59:30;;;;;;;5.20;2.00;;;19.80;99.90;;;;;;5054744;28;23098;-68
2023/09/29 10:01:56;;;;;;;7.68;2.20;;;19.80;99.90;;;;;;5049195;28;21336;-68
2023/09/29 10:04:26;;;;;;;7.80;2.33;;;19.70;99.90;;;;;;5056854;28;20238;-68
2023/09/29 10:06:55;;;;;;;4.35;2.13;;;19.70;99.90;;;;;;5044338;28;20048;-68
2023/09/29 10:09:21;;;;;;;7.85;2.20;;;19.70;99.90;;;;;;5048329;28;20154;-68
2023/09/29 10:11:57;;;;;;;;;;;19.70;99.90;;;;;;5056421;28;20040;-68
2023/09/29 10:14:22;;;;;;;5.22;1.95;;;19.70;99.90;;;;;;5051852;28;20390;-68
2023/09/29 10:16:48;;;;;;;5.78;1.75;;;19.70;99.90;;;;;;5057510;28;20040;-69
2023/09/29 10:19:17;;;;;;;6.93;2.60;;;19.70;99.90;;;;;;5051692;28;20052;-68
2023/09/29 10:21:48;;;;;;;7.70;2.75;;;19.60;99.90;;;;;;5054131;28;20494;-68
2023/09/29 10:24:26;;;;;;;8.88;2.83;;;19.60;99.90;;;;;;5062273;28;20635;-68
2023/09/29 10:26:58;;;;;;;8.38;2.28;;;19.50;99.90;;;;;;5053362;28;20052;-68
2023/09/29 10:29:29;;;;;;;7.10;2.42;;;19.40;99.90;;;;;;5052450;28;20040;-68
2023/09/29 10:32:15;;;;;;;6.05;2.50;;;19.40;99.90;;;;;;5062371;28;20055;-68
2023/09/29 10:34:41;;;;;;;4.90;2.15;;;19.40;99.90;;;;;;5050414;28;20112;-67
2023/09/29 10:37:10;;;;;;;5.30;2.63;;;19.50;99.90;;;;;;5048135;28;20076;-67
2023/09/29 10:39:36;;;;;;;5.07;2.28;;;19.50;99.90;;;;;;5056406;28;20151;-70
2023/09/29 10:42:13;;;;;;;8.48;2.78;;;19.50;99.90;;;;;;5054635;28;20107;-70
2023/09/29 10:44:52;;;;;;;11.98;2.65;;;19.50;99.90;;;;;;5060162;28;20047;-68
2023/09/29 10:47:34;;;;;;;8.18;3.08;;;19.50;99.90;;;;;;5053916;28;20274;-68
2023/09/29 10:50:04;;;;;;;5.82;2.47;;;19.50;99.90;;;;;;5051258;28;20070;-69
2023/09/29 10:52:30;;;;;;;5.97;2.70;;;19.50;99.90;;;;;;5053811;28;20032;-68
2023/09/29 10:54:59;;;;;;;;;;;19.50;99.90;;;;;;5054978;28;20398;-71
2023/09/29 10:57:33;;;;;;;9.35;2.75;;;19.50;99.90;;;;;;5059400;28;20403;-71
2023/09/29 10:59:59;;;;;;;8.10;2.50;;;19.40;99.90;;;;;;5057466;28;20416;-68
2023/09/29 11:02:36;;;;;;;9.13;3.10;;;19.50;99.90;;;;;;5054488;28;20041;-68
2023/09/29 11:05:07;;;;;;;;;;;19.40;99.90;;;;;;5050775;28;20049;-68
2023/09/29 11:07:46;;;;;;;8.50;2.60;;;19.50;99.90;;;;;;5046288;28;19967;-68
2023/09/29 11:10:13;;;;;;;8.52;3.42;;;19.40;99.90;;;;;;5049859;28;20156;-68
2023/09/29 11:12:40;;;;;;;9.10;3.58;;;19.40;99.90;;;;;;5050496;28;20037;-68
2023/09/29 11:15:08;;;;;;;7.07;2.90;;;19.40;99.90;;;;;;5040567;28;20040;-68
2023/09/29 11:17:47;;;;;;;7.85;2.80;;;19.40;99.90;;;;;;5050309;28;20052;-68
2023/09/29 11:20:26;;;;;;;10.13;2.65;;;19.50;99.90;;;;;;5056995;28;20078;-68
2023/09/29 11:23:14;;;;;;;7.65;2.80;;;19.40;99.90;;;;;;5054871;28;20129;-68
2023/09/29 11:25:54;;;;;;;8.85;2.78;;;19.50;99.90;;;;;;5050001;28;20866;-66
2023/09/29 11:28:20;;;;;;;7.68;3.13;;;19.50;99.90;;;;;;5046224;28;20055;-69
2023/09/29 11:30:46;;;;;;;10.10;3.53;;;19.50;99.90;;;;;;5049359;28;20045;-67
2023/09/29 11:33:13;;;;;;;11.40;4.35;;;19.60;99.90;;;;;;5047194;28;20112;-68
2023/09/29 11:35:45;;;;;;;9.07;3.38;;;19.60;99.90;;;;;;5056575;28;20416;-68
2023/09/29 11:38:15;;;;;;;8.98;3.17;;;19.60;99.90;;;;;;5052504;28;20595;-68
2023/09/29 11:40:42;;;;;;;7.47;3.38;;;19.60;99.90;;;;;;5034664;28;20552;-68
2023/09/29 11:43:08;;;;;;;6.63;3.20;;;19.60;99.90;;;;;;5030292;28;20068;-68
2023/09/29 11:45:33;;;;;;;6.20;3.47;;;19.60;99.90;;;;;;5046962;28;20071;-68
2023/09/29 11:47:59;;;;;;;9.98;3.40;;;19.60;99.90;;;;;;5042406;28;20076;-67
2023/09/29 11:50:25;;;;;;;5.07;2.72;;;19.60;99.90;;;;;;5045060;28;20572;-68
2023/09/29 11:52:51;;;;;;;;;;;19.70;99.90;;;;;;5045221;28;20516;-67
2023/09/29 11:55:16;;;;;;;6.15;3.75;;;19.70;99.90;;;;;;5037413;28;19954;-67
2023/09/29 11:57:42;;;;;;;4.53;1.77;;;19.60;99.90;;;;;;5049212;28;20116;-68
2023/09/29 12:00:10;;;;;;;3.42;0.93;;;19.60;99.90;;;;;;5046889;28;20037;-68
2023/09/29 12:02:37;;;;;;;1.73;0.60;;;19.50;99.90;;;;;;5053655;28;20109;-68
2023/09/29 12:05:07;;;;;;;4.80;1.10;;;19.30;99.90;;;;;;5053516;28;20040;-67
2023/09/29 12:07:33;;;;;;;3.03;0.70;;;19.10;99.90;;;;;;5044387;28;20397;-68
2023/09/29 12:10:00;;;;;;;2.85;0.70;;;18.80;99.90;;;;;;5054041;28;20052;-68
2023/09/29 12:12:26;;;;;;;2.28;0.90;;;18.70;99.90;;;;;;5058756;28;20142;-68
2023/09/29 12:14:53;;;;;;;2.13;0.98;;;18.50;99.90;;;;;;5054014;28;20037;-69
2023/09/29 12:17:19;;;;;;;;;;;18.40;99.90;;;;;;5053622;28;20048;-68
2023/09/29 12:19:44;;;;;;;3.20;0.88;;;18.30;99.90;;;;;;5047863;28;19921;-68
2023/09/29 12:22:10;;;;;;;3.30;0.82;;;18.20;99.90;;;;;;5055798;28;20382;-68
2023/09/29 12:24:38;;;;;;;4.75;1.25;;;18.20;99.90;;;;;;5050480;28;20384;-68
2023/09/29 12:27:05;;;;;;;3.58;0.80;;;18.10;99.90;;;;;;5051596;28;20048;-68
2023/09/29 12:29:31;;;;;;;3.50;0.77;;;18.10;99.90;;;;;;5054453;28;20072;-68
2023/09/29 12:31:57;;;;;;;2.67;0.80;;;18.10;99.90;;;;;;5074046;28;20041;-68
2023/09/29 12:34:23;;;;;;;3.88;0.70;;;18.10;99.90;;;;;;5045318;28;20447;-68
2023/09/29 12:36:48;;;;;;;2.38;0.57;;;18.00;99.90;;;;;;5049282;28;20124;-68
2023/09/29 12:39:14;;;;;;;3.55;0.60;;;17.90;99.90;;;;;;5057584;28;21535;-68
2023/09/29 12:41:40;;;;;;;7.10;0.60;;;17.90;99.90;;;;;;5056815;28;20052;-68
2023/09/29 12:44:05;;;;;;;3.45;1.00;;;17.80;99.90;;;;;;5060289;28;20044;-68
2023/09/29 12:46:32;;;;;;;1.40;0.50;;;17.80;99.90;;;;;;5053589;28;20037;-68
2023/09/29 12:49:00;;;;;;;2.45;0.60;;;17.80;99.90;;;;;;5053537;28;20131;-67